createdAt,value
2018-06-22T00:00:57.526Z,0.00
2018-06-22T00:01:57.561Z,0.00
2018-06-22T00:02:57.572Z,0.00
2018-06-22T00:03:57.595Z,0.00
2018-06-22T00:05:18.636Z,0.00
2018-06-22T00:05:57.645Z,0.00
2018-06-22T00:06:57.663Z,0.00
2018-06-22T00:07:57.687Z,0.00
2018-06-22T00:08:57.719Z,0.00
2018-06-22T00:09:57.733Z,0.00
2018-06-22T00:11:18.778Z,0.00
2018-06-22T00:11:57.779Z,0.00
2018-06-22T00:12:57.798Z,0.00
2018-06-22T00:13:57.817Z,0.00
2018-06-22T00:14:57.846Z,0.00
2018-06-22T00:15:57.877Z,0.00
2018-06-22T00:17:18.902Z,0.00
2018-06-22T00:17:57.909Z,0.00
2018-06-22T00:18:57.931Z,0.00
2018-06-22T00:19:57.952Z,0.00
2018-06-22T00:20:57.977Z,0.00
2018-06-22T00:21:58.000Z,0.00
2018-06-22T00:23:19.042Z,0.00
2018-06-22T00:23:58.049Z,0.00
2018-06-22T00:24:58.065Z,0.00
2018-06-22T00:25:58.090Z,0.00
2018-06-22T00:26:58.110Z,0.00
2018-06-22T00:27:58.132Z,0.00
2018-06-22T00:29:19.172Z,0.00
2018-06-22T00:29:58.180Z,0.00
2018-06-22T00:30:58.200Z,0.00
2018-06-22T00:31:58.223Z,0.00
2018-06-22T00:32:58.251Z,0.00
2018-06-22T00:33:58.271Z,0.00
2018-06-22T00:35:19.309Z,0.00
2018-06-22T00:35:58.313Z,0.00
2018-06-22T00:36:58.331Z,0.00
2018-06-22T00:37:58.354Z,0.00
2018-06-22T00:38:58.381Z,0.00
2018-06-22T00:39:58.403Z,0.00
2018-06-22T00:41:19.445Z,0.00
2018-06-22T00:41:58.446Z,0.00
2018-06-22T00:42:58.470Z,0.00
2018-06-22T00:43:58.494Z,0.00
2018-06-22T00:44:58.521Z,0.00
2018-06-22T00:45:58.539Z,0.00
2018-06-22T00:47:19.575Z,0.00
2018-06-22T00:47:58.584Z,0.00
2018-06-22T00:48:58.604Z,0.00
2018-06-22T00:49:58.630Z,0.00
2018-06-22T00:50:58.653Z,0.00
2018-06-22T00:51:58.728Z,0.00
2018-06-22T00:53:19.707Z,0.00
2018-06-22T00:53:58.718Z,0.00
2018-06-22T00:54:58.742Z,0.00
2018-06-22T00:55:58.761Z,0.00
2018-06-22T00:56:58.784Z,0.00
2018-06-22T00:57:58.802Z,0.00
2018-06-22T00:59:19.841Z,0.00
2018-06-22T00:59:58.852Z,0.00
2018-06-22T01:00:58.873Z,0.00
2018-06-22T01:01:58.899Z,0.00
2018-06-22T01:02:58.920Z,0.00
2018-06-22T01:03:58.943Z,0.00
2018-06-22T01:05:19.981Z,0.00
2018-06-22T01:05:58.985Z,0.00
2018-06-22T01:06:59.005Z,0.00
2018-06-22T01:07:59.026Z,0.00
2018-06-22T01:08:59.047Z,0.00
2018-06-22T01:09:59.080Z,0.00
2018-06-22T01:11:20.114Z,0.00
2018-06-22T01:11:59.120Z,0.00
2018-06-22T01:12:59.137Z,0.00
2018-06-22T01:13:59.168Z,0.00
2018-06-22T01:14:59.183Z,0.00
2018-06-22T01:15:59.223Z,0.00
2018-06-22T01:17:20.248Z,0.00
2018-06-22T01:17:59.254Z,0.00
2018-06-22T01:18:59.273Z,0.00
2018-06-22T01:19:59.299Z,0.00
2018-06-22T01:20:59.322Z,0.00
2018-06-22T01:21:59.346Z,0.00
2018-06-22T01:23:20.385Z,0.00
2018-06-22T01:23:59.387Z,0.00
2018-06-22T01:24:59.409Z,0.00
2018-06-22T01:25:59.435Z,0.00
2018-06-22T01:26:59.456Z,0.00
2018-06-22T01:27:59.485Z,0.00
2018-06-22T01:29:20.512Z,0.00
2018-06-22T01:29:59.520Z,0.00
2018-06-22T01:30:59.546Z,0.00
2018-06-22T01:31:59.572Z,0.00
2018-06-22T01:32:59.596Z,0.00
2018-06-22T01:33:59.608Z,0.00
2018-06-22T01:35:20.647Z,0.00
2018-06-22T01:35:59.657Z,0.00
2018-06-22T01:36:59.679Z,0.00
2018-06-22T01:37:59.703Z,0.00
2018-06-22T01:38:59.724Z,0.00
2018-06-22T01:39:59.745Z,0.00
2018-06-22T01:41:20.782Z,0.00
2018-06-22T01:41:59.795Z,0.00
2018-06-22T01:42:59.815Z,0.00
2018-06-22T01:43:59.835Z,0.00
2018-06-22T01:44:59.854Z,0.00
2018-06-22T01:45:59.875Z,0.00
2018-06-22T01:47:20.915Z,0.00
2018-06-22T01:47:59.927Z,0.00
2018-06-22T01:48:59.945Z,0.00
2018-06-22T01:49:59.966Z,0.00
2018-06-22T01:51:00.039Z,0.00
2018-06-22T01:52:00.019Z,0.00
2018-06-22T01:53:21.058Z,0.00
2018-06-22T01:54:00.060Z,0.00
2018-06-22T01:55:00.082Z,0.00
2018-06-22T01:56:00.098Z,0.00
2018-06-22T01:57:00.121Z,0.00
2018-06-22T01:58:00.149Z,0.00
2018-06-22T01:59:21.186Z,0.00
2018-06-22T02:00:00.191Z,0.00
2018-06-22T02:01:00.211Z,0.00
2018-06-22T02:02:00.237Z,0.00
2018-06-22T02:03:00.255Z,0.00
2018-06-22T02:04:00.285Z,0.00
2018-06-22T02:05:21.322Z,0.00
2018-06-22T02:06:00.323Z,0.00
2018-06-22T02:07:00.345Z,0.00
2018-06-22T02:08:00.404Z,0.00
2018-06-22T02:09:00.394Z,0.00
2018-06-22T02:10:00.418Z,0.00
2018-06-22T02:11:21.458Z,0.00
2018-06-22T02:12:00.460Z,0.00
2018-06-22T02:13:00.480Z,0.00
2018-06-22T02:14:00.512Z,0.00
2018-06-22T02:15:00.534Z,0.00
2018-06-22T02:16:00.551Z,0.00
2018-06-22T02:17:21.586Z,0.00
2018-06-22T02:18:00.591Z,0.00
2018-06-22T02:19:00.613Z,0.00
2018-06-22T02:20:00.640Z,0.00
2018-06-22T02:21:00.662Z,0.00
2018-06-22T02:22:00.687Z,0.00
2018-06-22T02:23:21.722Z,0.00
2018-06-22T02:24:00.732Z,0.00
2018-06-22T02:25:00.753Z,0.00
2018-06-22T02:26:00.777Z,0.00
2018-06-22T02:27:00.798Z,0.00
2018-06-22T02:28:00.818Z,0.00
2018-06-22T02:29:21.854Z,0.00
2018-06-22T02:30:00.857Z,0.00
2018-06-22T02:31:00.883Z,4.00
2018-06-22T02:32:00.910Z,4.00
2018-06-22T02:33:00.931Z,4.00
2018-06-22T02:34:00.955Z,4.00
2018-06-22T02:35:21.993Z,0.00
2018-06-22T02:36:00.995Z,0.00
2018-06-22T02:37:01.015Z,4.00
2018-06-22T02:38:01.046Z,4.00
2018-06-22T02:39:01.064Z,4.00
2018-06-22T02:40:01.083Z,4.00
2018-06-22T02:41:22.128Z,4.00
2018-06-22T02:42:01.129Z,8.00
2018-06-22T02:43:01.152Z,4.00
2018-06-22T02:44:01.174Z,4.00
2018-06-22T02:45:01.201Z,4.00
2018-06-22T02:46:01.223Z,8.00
2018-06-22T02:47:22.259Z,8.00
2018-06-22T02:48:01.270Z,8.00
2018-06-22T02:49:01.289Z,8.00
2018-06-22T02:50:01.314Z,8.00
2018-06-22T02:51:01.333Z,8.00
2018-06-22T02:52:01.357Z,12.00
2018-06-22T02:53:22.388Z,12.00
2018-06-22T02:54:01.403Z,12.00
2018-06-22T02:55:01.424Z,12.00
2018-06-22T02:56:01.446Z,12.00
2018-06-22T02:57:01.468Z,12.00
2018-06-22T02:58:01.484Z,12.00
2018-06-22T02:59:22.525Z,12.00
2018-06-22T03:00:01.535Z,12.00
2018-06-22T03:01:01.556Z,16.00
2018-06-22T03:02:01.575Z,16.00
2018-06-22T03:03:01.598Z,16.00
2018-06-22T03:04:01.626Z,16.00
2018-06-22T03:05:22.663Z,20.00
2018-06-22T03:06:01.670Z,24.00
2018-06-22T03:07:01.693Z,24.00
2018-06-22T03:08:01.711Z,28.00
2018-06-22T03:09:01.732Z,28.00
2018-06-22T03:10:01.761Z,32.00
2018-06-22T03:11:22.796Z,32.00
2018-06-22T03:12:01.800Z,36.00
2018-06-22T03:13:01.821Z,36.00
2018-06-22T03:14:01.851Z,36.00
2018-06-22T03:15:01.867Z,40.00
2018-06-22T03:16:01.897Z,44.00
2018-06-22T03:17:22.930Z,44.00
2018-06-22T03:18:01.934Z,44.00
2018-06-22T03:19:01.957Z,40.00
2018-06-22T03:20:01.989Z,32.00
2018-06-22T03:21:02.006Z,24.00
2018-06-22T03:22:02.026Z,20.00
2018-06-22T03:23:23.065Z,20.00
2018-06-22T03:24:02.067Z,16.00
2018-06-22T03:25:02.093Z,20.00
2018-06-22T03:26:02.118Z,28.00
2018-06-22T03:27:02.138Z,32.00
2018-06-22T03:28:02.157Z,36.00
2018-06-22T03:29:23.197Z,44.00
2018-06-22T03:30:02.204Z,56.00
2018-06-22T03:31:02.224Z,60.00
2018-06-22T03:32:02.370Z,60.00
2018-06-22T03:33:02.272Z,60.00
2018-06-22T03:34:02.292Z,60.00
2018-06-22T03:35:23.336Z,56.00
2018-06-22T03:36:02.341Z,64.00
2018-06-22T03:37:02.362Z,72.00
2018-06-22T03:38:02.384Z,76.00
2018-06-22T03:39:02.405Z,88.00
2018-06-22T03:40:02.425Z,92.00
2018-06-22T03:41:23.461Z,100.00
2018-06-22T03:42:02.474Z,108.00
2018-06-22T03:43:02.499Z,120.00
2018-06-22T03:44:02.515Z,124.00
2018-06-22T03:45:02.537Z,128.00
2018-06-22T03:46:02.557Z,128.00
2018-06-22T03:47:23.602Z,124.00
2018-06-22T03:48:02.606Z,116.00
2018-06-22T03:49:02.628Z,112.00
2018-06-22T03:50:02.648Z,108.00
2018-06-22T03:51:02.674Z,108.00
2018-06-22T03:52:02.695Z,104.00
2018-06-22T03:53:23.734Z,108.00
2018-06-22T03:54:02.741Z,112.00
2018-06-22T03:55:02.768Z,112.00
2018-06-22T03:56:02.777Z,120.00
2018-06-22T03:57:02.804Z,120.00
2018-06-22T03:58:02.829Z,116.00
2018-06-22T03:59:23.868Z,124.00
2018-06-22T04:00:02.871Z,128.00
2018-06-22T04:01:02.891Z,120.00
2018-06-22T04:02:02.915Z,112.00
2018-06-22T04:03:02.940Z,112.00
2018-06-22T04:04:02.965Z,104.00
2018-06-22T04:05:24.003Z,108.00
2018-06-22T04:06:03.005Z,80.00
2018-06-22T04:07:03.027Z,56.00
2018-06-22T04:08:03.092Z,52.00
2018-06-22T04:09:03.094Z,80.00
2018-06-22T04:10:03.099Z,84.00
2018-06-22T04:11:24.135Z,92.00
2018-06-22T04:12:03.137Z,96.00
2018-06-22T04:13:03.181Z,92.00
2018-06-22T04:14:03.186Z,80.00
2018-06-22T04:15:03.208Z,88.00
2018-06-22T04:16:03.228Z,96.00
2018-06-22T04:17:24.265Z,100.00
2018-06-22T04:18:03.270Z,104.00
2018-06-22T04:19:03.292Z,112.00
2018-06-22T04:20:03.318Z,116.00
2018-06-22T04:21:03.340Z,116.00
2018-06-22T04:22:03.363Z,116.00
2018-06-22T04:23:24.399Z,108.00
2018-06-22T04:24:03.408Z,100.00
2018-06-22T04:25:03.429Z,100.00
2018-06-22T04:26:03.456Z,96.00
2018-06-22T04:27:03.477Z,96.00
2018-06-22T04:28:03.495Z,96.00
2018-06-22T04:29:24.533Z,92.00
2018-06-22T04:30:03.541Z,108.00
2018-06-22T04:31:03.564Z,108.00
2018-06-22T04:32:03.582Z,124.00
2018-06-22T04:33:03.603Z,132.00
2018-06-22T04:34:03.628Z,148.00
2018-06-22T04:35:24.670Z,160.00
2018-06-22T04:36:03.678Z,160.00
2018-06-22T04:37:03.698Z,156.00
2018-06-22T04:38:03.722Z,168.00
2018-06-22T04:39:03.745Z,152.00
2018-06-22T04:40:03.766Z,156.00
2018-06-22T04:41:24.805Z,172.00
2018-06-22T04:42:03.806Z,200.00
2018-06-22T04:43:03.829Z,208.00
2018-06-22T04:44:03.854Z,224.00
2018-06-22T04:45:03.876Z,212.00
2018-06-22T04:46:03.896Z,220.00
2018-06-22T04:47:24.935Z,236.00
2018-06-22T04:48:03.945Z,232.00
2018-06-22T04:49:03.966Z,204.00
2018-06-22T04:50:03.986Z,176.00
2018-06-22T04:51:04.059Z,160.00
2018-06-22T04:52:04.029Z,140.00
2018-06-22T04:53:25.066Z,148.00
2018-06-22T04:54:04.076Z,168.00
2018-06-22T04:55:04.099Z,208.00
2018-06-22T04:56:04.122Z,212.00
2018-06-22T04:57:04.141Z,180.00
2018-06-22T04:58:04.166Z,152.00
2018-06-22T04:59:25.203Z,160.00
2018-06-22T05:00:04.219Z,212.00
2018-06-22T05:01:04.234Z,240.00
2018-06-22T05:02:04.250Z,220.00
2018-06-22T05:03:04.285Z,204.00
2018-06-22T05:04:04.299Z,184.00
2018-06-22T05:05:25.337Z,244.00
2018-06-22T05:06:04.346Z,260.00
2018-06-22T05:07:04.370Z,240.00
2018-06-22T05:08:04.385Z,244.00
2018-06-22T05:09:04.409Z,256.00
2018-06-22T05:10:04.436Z,280.00
2018-06-22T05:11:25.476Z,292.00
2018-06-22T05:12:04.477Z,288.00
2018-06-22T05:13:04.498Z,268.00
2018-06-22T05:14:04.521Z,240.00
2018-06-22T05:15:04.542Z,228.00
2018-06-22T05:16:04.568Z,236.00
2018-06-22T05:17:25.606Z,244.00
2018-06-22T05:18:04.610Z,256.00
2018-06-22T05:19:04.635Z,260.00
2018-06-22T05:20:04.659Z,276.00
2018-06-22T05:21:04.680Z,284.00
2018-06-22T05:22:04.702Z,316.00
2018-06-22T05:23:25.740Z,340.00
2018-06-22T05:24:04.741Z,360.00
2018-06-22T05:25:04.763Z,352.00
2018-06-22T05:26:04.790Z,360.00
2018-06-22T05:27:04.813Z,356.00
2018-06-22T05:28:04.830Z,360.00
2018-06-22T05:29:25.870Z,364.00
2018-06-22T05:30:04.877Z,400.00
2018-06-22T05:31:04.905Z,420.00
2018-06-22T05:32:04.926Z,440.00
2018-06-22T05:33:04.948Z,444.00
2018-06-22T05:34:04.964Z,464.00
2018-06-22T05:35:26.004Z,484.00
2018-06-22T05:36:05.014Z,452.00
2018-06-22T05:37:05.035Z,416.00
2018-06-22T05:38:05.060Z,408.00
2018-06-22T05:39:05.081Z,464.00
2018-06-22T05:40:05.101Z,592.00
2018-06-22T05:41:26.169Z,592.00
2018-06-22T05:42:05.146Z,536.00
2018-06-22T05:43:05.170Z,508.00
2018-06-22T05:44:05.191Z,504.00
2018-06-22T05:45:05.212Z,648.00
2018-06-22T05:46:05.234Z,668.00
2018-06-22T05:47:26.273Z,660.00
2018-06-22T05:48:05.287Z,676.00
2018-06-22T05:49:05.316Z,728.00
2018-06-22T05:50:05.315Z,744.00
2018-06-22T05:51:05.439Z,744.00
2018-06-22T05:52:05.373Z,852.00
2018-06-22T05:53:26.407Z,1120.00
2018-06-22T05:54:05.418Z,1424.00
2018-06-22T05:55:05.442Z,2160.00
2018-06-22T05:56:05.460Z,2548.00
2018-06-22T05:57:05.480Z,2456.00
2018-06-22T05:58:05.507Z,2128.00
2018-06-22T05:59:26.548Z,1732.00
2018-06-22T06:00:05.547Z,1524.00
2018-06-22T06:01:05.570Z,1956.00
2018-06-22T06:02:05.592Z,2368.00
2018-06-22T06:03:05.611Z,2684.00
2018-06-22T06:04:05.640Z,3460.00
2018-06-22T06:05:26.677Z,3624.00
2018-06-22T06:06:05.682Z,2796.00
2018-06-22T06:07:05.708Z,1900.00
2018-06-22T06:08:05.731Z,1408.00
2018-06-22T06:09:05.752Z,1208.00
2018-06-22T06:10:05.774Z,1216.00
2018-06-22T06:11:26.814Z,1316.00
2018-06-22T06:12:05.819Z,1292.00
2018-06-22T06:13:05.837Z,1008.00
2018-06-22T06:14:05.865Z,788.00
2018-06-22T06:15:05.921Z,1024.00
2018-06-22T06:16:05.904Z,1384.00
2018-06-22T06:17:26.947Z,1632.00
2018-06-22T06:18:05.957Z,1744.00
2018-06-22T06:19:05.976Z,1972.00
2018-06-22T06:20:06.058Z,2096.00
2018-06-22T06:21:06.025Z,1960.00
2018-06-22T06:22:06.046Z,1984.00
2018-06-22T06:23:27.083Z,2076.00
2018-06-22T06:24:06.095Z,2268.00
2018-06-22T06:25:06.112Z,2724.00
2018-06-22T06:26:06.137Z,3168.00
2018-06-22T06:27:06.160Z,3092.00
2018-06-22T06:28:06.178Z,3364.00
2018-06-22T06:29:27.218Z,3000.00
2018-06-22T06:30:06.228Z,3568.00
2018-06-22T06:31:06.253Z,4796.00
2018-06-22T06:32:06.270Z,7400.00
2018-06-22T06:33:06.292Z,8944.00
2018-06-22T06:34:06.311Z,5064.00
2018-06-22T06:35:27.353Z,3736.00
2018-06-22T06:36:06.360Z,2816.00
2018-06-22T06:37:06.385Z,2632.00
2018-06-22T06:38:06.408Z,2316.00
2018-06-22T06:39:06.427Z,2316.00
2018-06-22T06:40:06.460Z,2264.00
2018-06-22T06:41:27.491Z,2220.00
2018-06-22T06:42:06.498Z,2292.00
2018-06-22T06:43:06.520Z,2164.00
2018-06-22T06:44:06.537Z,2108.00
2018-06-22T06:45:06.559Z,1932.00
2018-06-22T06:46:06.583Z,2036.00
2018-06-22T06:47:27.628Z,1988.00
2018-06-22T06:48:06.632Z,1968.00
2018-06-22T06:49:06.652Z,2432.00
2018-06-22T06:50:06.683Z,3180.00
2018-06-22T06:51:06.702Z,4604.00
2018-06-22T06:52:06.726Z,7820.00
2018-06-22T06:53:27.757Z,6780.00
2018-06-22T06:54:06.765Z,5348.00
2018-06-22T06:55:06.788Z,4200.00
2018-06-22T06:56:06.804Z,3168.00
2018-06-22T06:57:06.828Z,2288.00
2018-06-22T06:58:06.854Z,2208.00
2018-06-22T06:59:27.895Z,2760.00
2018-06-22T07:00:06.902Z,3124.00
2018-06-22T07:01:06.929Z,3476.00
2018-06-22T07:02:06.953Z,3580.00
2018-06-22T07:03:06.964Z,3264.00
2018-06-22T07:04:06.991Z,3216.00
2018-06-22T07:05:28.031Z,3064.00
2018-06-22T07:06:07.033Z,2744.00
2018-06-22T07:07:07.064Z,2552.00
2018-06-22T07:08:07.074Z,2416.00
2018-06-22T07:09:07.096Z,2436.00
2018-06-22T07:10:07.124Z,2592.00
2018-06-22T07:11:28.165Z,2928.00
2018-06-22T07:12:07.166Z,3356.00
2018-06-22T07:13:07.188Z,4088.00
2018-06-22T07:14:07.208Z,4280.00
2018-06-22T07:15:07.230Z,4744.00
2018-06-22T07:16:07.258Z,5384.00
2018-06-22T07:17:28.294Z,4816.00
2018-06-22T07:18:07.297Z,5268.00
2018-06-22T07:19:07.322Z,5308.00
2018-06-22T07:20:07.351Z,6396.00
2018-06-22T07:21:07.367Z,4876.00
2018-06-22T07:22:07.393Z,4300.00
2018-06-22T07:23:28.485Z,3952.00
2018-06-22T07:24:07.442Z,4380.00
2018-06-22T07:25:07.452Z,4760.00
2018-06-22T07:26:07.483Z,5240.00
2018-06-22T07:27:07.503Z,4572.00
2018-06-22T07:28:07.522Z,5264.00
2018-06-22T07:29:28.561Z,5472.00
2018-06-22T07:30:07.577Z,5140.00
2018-06-22T07:31:07.592Z,5164.00
2018-06-22T07:32:07.619Z,4092.00
2018-06-22T07:33:07.641Z,3704.00
2018-06-22T07:34:07.663Z,3756.00
2018-06-22T07:35:28.705Z,4320.00
2018-06-22T07:36:07.711Z,4648.00
2018-06-22T07:37:07.730Z,4324.00
2018-06-22T07:38:07.755Z,3548.00
2018-06-22T07:39:07.777Z,3048.00
2018-06-22T07:40:07.801Z,2680.00
2018-06-22T07:41:28.835Z,2416.00
2018-06-22T07:42:07.851Z,2248.00
2018-06-22T07:43:07.877Z,2116.00
2018-06-22T07:44:07.891Z,2076.00
2018-06-22T07:45:07.915Z,2108.00
2018-06-22T07:46:07.939Z,2176.00
2018-06-22T07:47:28.979Z,2284.00
2018-06-22T07:48:07.989Z,2372.00
2018-06-22T07:49:08.013Z,2492.00
2018-06-22T07:50:08.031Z,2644.00
2018-06-22T07:51:08.058Z,2772.00
2018-06-22T07:52:08.080Z,2876.00
2018-06-22T07:53:29.122Z,2904.00
2018-06-22T07:54:08.131Z,2992.00
2018-06-22T07:55:08.205Z,2964.00
2018-06-22T07:56:08.168Z,3608.00
2018-06-22T07:57:08.209Z,4316.00
2018-06-22T07:58:08.220Z,4228.00
2018-06-22T07:59:29.266Z,3900.00
2018-06-22T08:00:08.288Z,3672.00
2018-06-22T08:01:08.287Z,3976.00
2018-06-22T08:02:08.311Z,4076.00
2018-06-22T08:03:08.348Z,3316.00
2018-06-22T08:04:08.373Z,3832.00
2018-06-22T08:05:29.399Z,3624.00
2018-06-22T08:06:08.428Z,4020.00
2018-06-22T08:07:08.428Z,4500.00
2018-06-22T08:08:08.449Z,4044.00
2018-06-22T08:09:08.476Z,4196.00
2018-06-22T08:10:08.502Z,3544.00
2018-06-22T08:11:29.546Z,3416.00
2018-06-22T08:12:08.552Z,4212.00
2018-06-22T08:13:08.567Z,3332.00
2018-06-22T08:14:08.594Z,3556.00
2018-06-22T08:15:08.617Z,3364.00
2018-06-22T08:16:08.638Z,3508.00
2018-06-22T08:17:29.681Z,3316.00
2018-06-22T08:18:08.684Z,4272.00
2018-06-22T08:19:08.713Z,3460.00
2018-06-22T08:20:08.737Z,4064.00
2018-06-22T08:21:08.760Z,4164.00
2018-06-22T08:22:08.790Z,4448.00
2018-06-22T08:23:29.855Z,3732.00
2018-06-22T08:24:08.832Z,3848.00
2018-06-22T08:25:08.858Z,3588.00
2018-06-22T08:26:08.877Z,3336.00
2018-06-22T08:27:08.906Z,3604.00
2018-06-22T08:28:08.922Z,3288.00
2018-06-22T08:29:29.960Z,3116.00
2018-06-22T08:30:08.975Z,2932.00
2018-06-22T08:31:08.999Z,2316.00
2018-06-22T08:32:09.019Z,2948.00
2018-06-22T08:33:09.050Z,3284.00
2018-06-22T08:34:09.066Z,3628.00
2018-06-22T08:35:30.109Z,3620.00
2018-06-22T08:36:09.121Z,3768.00
2018-06-22T08:37:09.139Z,3404.00
2018-06-22T08:38:09.160Z,3632.00
2018-06-22T08:39:09.182Z,4048.00
2018-06-22T08:40:09.210Z,4028.00
2018-06-22T08:41:30.271Z,3772.00
2018-06-22T08:42:09.298Z,3496.00
2018-06-22T08:43:09.291Z,3508.00
2018-06-22T08:44:09.305Z,4052.00
2018-06-22T08:45:09.328Z,4344.00
2018-06-22T08:46:09.359Z,3952.00
2018-06-22T08:47:30.397Z,3736.00
2018-06-22T08:48:09.399Z,3784.00
2018-06-22T08:49:09.429Z,3612.00
2018-06-22T08:50:09.449Z,3492.00
2018-06-22T08:51:09.477Z,3328.00
2018-06-22T08:52:09.504Z,3860.00
2018-06-22T08:53:30.545Z,3944.00
2018-06-22T08:54:09.548Z,3932.00
2018-06-22T08:55:09.576Z,3764.00
2018-06-22T08:56:09.596Z,3708.00
2018-06-22T08:57:09.620Z,3276.00
2018-06-22T08:58:09.643Z,3380.00
2018-06-22T08:59:30.692Z,3264.00
2018-06-22T09:00:09.696Z,3384.00
2018-06-22T09:01:09.746Z,2824.00
2018-06-22T09:02:09.745Z,3168.00
2018-06-22T09:03:09.765Z,3036.00
2018-06-22T09:04:09.783Z,2944.00
2018-06-22T09:05:30.826Z,2936.00
2018-06-22T09:06:09.838Z,3184.00
2018-06-22T09:07:09.863Z,3312.00
2018-06-22T09:08:09.904Z,3028.00
2018-06-22T09:09:09.912Z,3072.00
2018-06-22T09:10:09.933Z,2896.00
2018-06-22T09:11:30.974Z,2880.00
2018-06-22T09:12:09.985Z,3252.00
2018-06-22T09:13:10.020Z,3076.00
2018-06-22T09:14:10.033Z,3276.00
2018-06-22T09:15:10.056Z,3500.00
2018-06-22T09:16:10.078Z,3328.00
2018-06-22T09:17:31.118Z,2772.00
2018-06-22T09:18:10.130Z,2288.00
2018-06-22T09:19:10.155Z,2024.00
2018-06-22T09:20:10.188Z,1844.00
2018-06-22T09:21:10.200Z,1772.00
2018-06-22T09:22:10.245Z,1756.00
2018-06-22T09:23:31.267Z,1764.00
2018-06-22T09:24:10.275Z,1872.00
2018-06-22T09:25:10.301Z,2096.00
2018-06-22T09:26:10.319Z,2348.00
2018-06-22T09:27:10.344Z,2636.00
2018-06-22T09:28:10.394Z,2888.00
2018-06-22T09:29:31.412Z,3088.00
2018-06-22T09:30:10.422Z,2992.00
2018-06-22T09:31:10.446Z,2948.00
2018-06-22T09:32:10.472Z,2728.00
2018-06-22T09:33:10.488Z,2444.00
2018-06-22T09:34:10.532Z,2308.00
2018-06-22T09:35:31.558Z,2244.00
2018-06-22T09:36:10.562Z,2544.00
2018-06-22T09:37:10.588Z,2552.00
2018-06-22T09:38:10.615Z,2544.00
2018-06-22T09:39:10.636Z,2476.00
2018-06-22T09:40:10.666Z,2448.00
2018-06-22T09:41:31.706Z,2452.00
2018-06-22T09:42:10.711Z,2448.00
2018-06-22T09:43:10.738Z,2464.00
2018-06-22T09:44:10.762Z,2492.00
2018-06-22T09:45:10.863Z,2552.00
2018-06-22T09:46:10.810Z,2652.00
2018-06-22T09:47:31.851Z,2744.00
2018-06-22T09:48:10.859Z,3128.00
2018-06-22T09:49:10.921Z,3072.00
2018-06-22T09:50:10.912Z,3144.00
2018-06-22T09:51:10.932Z,3336.00
2018-06-22T09:52:10.951Z,3704.00
2018-06-22T09:53:31.999Z,3920.00
2018-06-22T09:54:11.602Z,4408.00
2018-06-22T09:55:11.065Z,3936.00
2018-06-22T09:56:11.053Z,3656.00
2018-06-22T09:57:11.079Z,3356.00
2018-06-22T09:58:11.098Z,3236.00
2018-06-22T09:59:32.169Z,3028.00
2018-06-22T10:00:11.191Z,2908.00
2018-06-22T10:01:11.177Z,3008.00
2018-06-22T10:02:11.203Z,2944.00
2018-06-22T10:03:11.222Z,2784.00
2018-06-22T10:04:11.248Z,2832.00
2018-06-22T10:05:32.288Z,2868.00
2018-06-22T10:06:11.298Z,2632.00
2018-06-22T10:07:11.339Z,2496.00
2018-06-22T10:08:11.372Z,2572.00
2018-06-22T10:09:11.366Z,2536.00
2018-06-22T10:10:11.390Z,2788.00
2018-06-22T10:11:32.524Z,2996.00
2018-06-22T10:12:11.443Z,3556.00
2018-06-22T10:13:11.467Z,3688.00
2018-06-22T10:14:11.487Z,3404.00
2018-06-22T10:15:11.513Z,2900.00
2018-06-22T10:16:11.543Z,2520.00
2018-06-22T10:17:32.582Z,2416.00
2018-06-22T10:18:11.594Z,2716.00
2018-06-22T10:19:11.611Z,3012.00
2018-06-22T10:20:11.638Z,3032.00
2018-06-22T10:21:11.660Z,3216.00
2018-06-22T10:22:11.688Z,3056.00
2018-06-22T10:23:32.739Z,3324.00
2018-06-22T10:24:11.734Z,3500.00
2018-06-22T10:25:11.757Z,3548.00
2018-06-22T10:26:11.786Z,3428.00
2018-06-22T10:27:11.838Z,3356.00
2018-06-22T10:28:11.841Z,2860.00
2018-06-22T10:29:32.876Z,2684.00
2018-06-22T10:30:11.882Z,2752.00
2018-06-22T10:31:11.908Z,3148.00
2018-06-22T10:32:11.935Z,3100.00
2018-06-22T10:33:11.959Z,3012.00
2018-06-22T10:34:11.982Z,3600.00
2018-06-22T10:35:33.021Z,3604.00
2018-06-22T10:36:12.027Z,3684.00
2018-06-22T10:37:12.053Z,3492.00
2018-06-22T10:38:12.081Z,3208.00
2018-06-22T10:39:12.110Z,3320.00
2018-06-22T10:40:12.131Z,3308.00
2018-06-22T10:41:33.165Z,3396.00
2018-06-22T10:42:12.172Z,3448.00
2018-06-22T10:43:12.205Z,3432.00
2018-06-22T10:44:12.226Z,3532.00
2018-06-22T10:45:12.256Z,3512.00
2018-06-22T10:46:12.274Z,3416.00
2018-06-22T10:47:33.315Z,3404.00
2018-06-22T10:48:12.325Z,3256.00
2018-06-22T10:49:12.349Z,3256.00
2018-06-22T10:50:12.377Z,2944.00
2018-06-22T10:51:12.403Z,2844.00
2018-06-22T10:52:12.423Z,2884.00
2018-06-22T10:53:33.462Z,2712.00
2018-06-22T10:54:12.472Z,2920.00
2018-06-22T10:55:12.497Z,2892.00
2018-06-22T10:56:12.524Z,3384.00
2018-06-22T10:57:12.547Z,3760.00
2018-06-22T10:58:12.572Z,3880.00
2018-06-22T10:59:33.615Z,3388.00
2018-06-22T11:00:12.622Z,2988.00
2018-06-22T11:01:12.648Z,2512.00
2018-06-22T11:02:12.677Z,2108.00
2018-06-22T11:03:12.696Z,1908.00
2018-06-22T11:04:12.717Z,1872.00
2018-06-22T11:05:33.753Z,2044.00
2018-06-22T11:06:12.763Z,2344.00
2018-06-22T11:07:12.789Z,2676.00
2018-06-22T11:08:12.823Z,3032.00
2018-06-22T11:09:12.845Z,3264.00
2018-06-22T11:10:12.866Z,3312.00
2018-06-22T11:11:33.902Z,3476.00
2018-06-22T11:12:12.916Z,3112.00
2018-06-22T11:13:12.940Z,3244.00
2018-06-22T11:14:12.968Z,3200.00
2018-06-22T11:15:12.991Z,3180.00
2018-06-22T11:16:13.011Z,3484.00
2018-06-22T11:17:34.053Z,3352.00
2018-06-22T11:18:13.072Z,2616.00
2018-06-22T11:19:13.096Z,2284.00
2018-06-22T11:20:13.113Z,2112.00
2018-06-22T11:21:13.189Z,2172.00
2018-06-22T11:22:13.164Z,2424.00
2018-06-22T11:23:34.202Z,2864.00
2018-06-22T11:24:13.225Z,3312.00
2018-06-22T11:25:13.237Z,3484.00
2018-06-22T11:26:13.261Z,3484.00
2018-06-22T11:27:13.283Z,3392.00
2018-06-22T11:28:13.312Z,3192.00
2018-06-22T11:29:34.346Z,3204.00
2018-06-22T11:30:13.353Z,3456.00
2018-06-22T11:31:13.403Z,3892.00
2018-06-22T11:32:13.456Z,4324.00
2018-06-22T11:33:13.436Z,3648.00
2018-06-22T11:34:13.459Z,3272.00
2018-06-22T11:35:34.504Z,2980.00
2018-06-22T11:36:13.509Z,2800.00
2018-06-22T11:37:13.541Z,2700.00
2018-06-22T11:38:13.562Z,2780.00
2018-06-22T11:39:13.579Z,3132.00
2018-06-22T11:40:13.611Z,3168.00
2018-06-22T11:41:34.642Z,3252.00
2018-06-22T11:42:13.647Z,3196.00
2018-06-22T11:43:13.684Z,3164.00
2018-06-22T11:44:13.707Z,3436.00
2018-06-22T11:45:13.734Z,3196.00
2018-06-22T11:46:13.756Z,3424.00
2018-06-22T11:47:34.796Z,3756.00
2018-06-22T11:48:13.869Z,3768.00
2018-06-22T11:49:13.832Z,3804.00
2018-06-22T11:50:13.855Z,3776.00
2018-06-22T11:51:13.944Z,3588.00
2018-06-22T11:52:13.901Z,3440.00
2018-06-22T11:53:34.952Z,3400.00
2018-06-22T11:54:13.954Z,3524.00
2018-06-22T11:55:13.990Z,3624.00
2018-06-22T11:56:14.018Z,3720.00
2018-06-22T11:57:14.030Z,3856.00
2018-06-22T11:58:14.061Z,3948.00
2018-06-22T11:59:35.089Z,4020.00
2018-06-22T12:00:14.104Z,4060.00
2018-06-22T12:01:14.132Z,4092.00
2018-06-22T12:02:14.149Z,4108.00
2018-06-22T12:03:14.180Z,3996.00
2018-06-22T12:04:14.205Z,3888.00
2018-06-22T12:05:35.247Z,3824.00
2018-06-22T12:06:14.253Z,3788.00
2018-06-22T12:07:14.280Z,4100.00
2018-06-22T12:08:14.297Z,4004.00
2018-06-22T12:09:14.331Z,3952.00
2018-06-22T12:10:14.350Z,3780.00
2018-06-22T12:11:35.397Z,3884.00
2018-06-22T12:12:14.410Z,3872.00
2018-06-22T12:13:14.431Z,3640.00
2018-06-22T12:14:14.450Z,3576.00
2018-06-22T12:15:14.474Z,3384.00
2018-06-22T12:16:14.503Z,3304.00
2018-06-22T12:17:35.543Z,3364.00
2018-06-22T12:18:14.556Z,3448.00
2018-06-22T12:19:14.625Z,4076.00
2018-06-22T12:20:14.601Z,3612.00
2018-06-22T12:21:14.628Z,3060.00
2018-06-22T12:22:14.654Z,2528.00
2018-06-22T12:23:35.706Z,2332.00
2018-06-22T12:24:14.700Z,2068.00
2018-06-22T12:25:14.724Z,1988.00
2018-06-22T12:26:14.752Z,2244.00
2018-06-22T12:27:14.779Z,2664.00
2018-06-22T12:28:14.797Z,2988.00
2018-06-22T12:29:35.888Z,3216.00